Slave Lake Airport
CYZH : now visible

Airfield :











YOU CAN JOIN US ON...

 
LOGIN :

Register | Disclaimer

   EN    FR    IT 

 









Legend :    VFR   Marginal VFR   IFR   Intensive IFR   Very Intensive IFR
Visi :
Ceiling :
>= 8 km
>= 3000ft
5 to 8 km
1000 to 3000 ft
1500m to 5 km
500 to 1000 ft
800 to 1500m
200 to 500 ft
< 800m
< 200 ft
Symbols :   Thunderstorms  Fog  Heavy snow  Heavy precipitations  Wind > 20 kt






- Airport Elevation : 1912 ft
- IATA code : YZH


CYZH - Slave Lake

CURRENT METAR :
  • 011600Z AUTO 34009KT 9SM -SN OVC055 M20/M23 A3016 RMK SLP269

EXPIRED METARs :
  • 011519Z AUTO /////KT 6SM -SN BKN044 OVC066 M19/M22 A3013 RMK SLP263
  • 011500Z AUTO 33011G17KT 2 1/4SM -SN OVC041 M18/M21 A3011 RMK PRESRR ICE MISG SLP250
  • 011450Z AUTO 33011G17KT 3SM -SN OVC037 M18/M21 A3010 RMK SLP253
  • 011438Z AUTO 33010G15KT 2 1/2SM -SN OVC031 M18/M21 A3009 RMK SLP249
  • 011421Z AUTO 33009G15KT 2SM -SN OVC037 M18/M21 A3008 RMK SLP246
  • 011400Z AUTO 33009KT 290V350 4SM -SN OVC047 M18/M21 A3008 RMK ICE MISG SLP239
  • 011346Z AUTO 33007KT 5SM -SN SCT020 OVC043 M17/M20 A3007 RMK SLP235

TAF AMD TAF CYZH
Valid from the 01 at 15:00 until the 02 at 01:00 UTC


011504Z 0115/0201 31010KT P6SM FEW025 SCT040 BKN080
TEMPO 0115/0118 2SM -SN BKN020 OVC040
FM011800 32012KT P6SM FEW030 BKN080 RMK FCST BASED ON AUTO OBS. NXT FCST BY 011900Z
CZEG FIR / North America



MET'MAP, your aeronautical weather chart ! - Copyright ORBIFLY December 2007 - Disclaimer

ORBIFLY MET'MAP TEAM :

Programming & Development : Alexandra Zaïnal
Original concept : Baudouin d'Aumeries
Technical & hardware support : Manuel Goepfert
Assistance : Marc-Olivier Méhu




SOURCES & CREDITS :

   NOAA       Earth
Advisory